CYNL

METAR CYNL 181300Z AUTO 08005KT FEW180 03/03 A2970 RMK AO1 PRESFR SLP073
METAR
LOCATION
CYNL
DATE - TIME
181300Z
WIND
080 TRUE @ 5 KNOTS
VISIBILITY
RUNWAY VISUAL RANGE
NOT REPORTED
WEATHER
CLOUDINESS
FEW180
TEMP / DEWPOINT
3 ºC / 3 ºC
ALTIMETER
29.70 in. Hg
RECENT WEATHER
NOT REPORTED
WIND SHEAR
NOT REPORTED
REMARKS
RMK AO1 PRESFR SLP073
SEA LEVEL PRESSURE: hPa

CYNL

METAR CYNL 181200Z AUTO 00000KT CLR 02/02 A2973 RMK AO1 SLP083
METAR
LOCATION
CYNL
DATE - TIME
181200Z
WIND
CALM WIND
VISIBILITY
RUNWAY VISUAL RANGE
NOT REPORTED
WEATHER
CLOUDINESS
CLR
TEMP / DEWPOINT
2 ºC / 2 ºC
ALTIMETER
29.73 in. Hg
RECENT WEATHER
NOT REPORTED
WIND SHEAR
NOT REPORTED
REMARKS
RMK AO1 SLP083
SEA LEVEL PRESSURE: hPa

CYNL

METAR CYNL 181100Z AUTO 00000KT FEW190 02/02 A2971 RMK AO1 PRESFR SLP078
METAR
LOCATION
CYNL
DATE - TIME
181100Z
WIND
CALM WIND
VISIBILITY
RUNWAY VISUAL RANGE
NOT REPORTED
WEATHER
CLOUDINESS
FEW190
TEMP / DEWPOINT
2 ºC / 2 ºC
ALTIMETER
29.71 in. Hg
RECENT WEATHER
NOT REPORTED
WIND SHEAR
NOT REPORTED
REMARKS
RMK AO1 PRESFR SLP078
SEA LEVEL PRESSURE: hPa

Your time UTC time
 
 
Weather data provided by AXYS Technologies Inc., www.axystechnologies.com
 
Station History